Latest Weather Observations for Lombadina

IDW60801

Issued at 1:02 pm WST Saturday 28 March 2015 (issued every 30 minutes, with the page automatically refreshed every 10 minutes)

About weather observations | Map of weather stations | Latest weather observations for WA | Other Formats
Station Details ID: 503016 Name: LOMBADINA AIRSTRIP Lat: -16.52 Lon: 122.92 Height: 42.0 m
Data from the previous 72 hours. | See also: Recent months for locations in Western Australia
Date/Time
WST
Temp
°C
App
Temp
°C
Dew
Point
Rel
Hum
%
Delta-T
°C
Wind Press
QNH
hPa
Press
MSL
hPa
Rain
since 9 am
mm
Dir
 
Spd
km/h
Gust
km/h
Spd
kts
Gust
kts
28/01:00pm 24.8 27.0 24.0 95 0.5 ENE 19 43 10 23 1010.7 1010.4 5.0
28/12:54pm 25.7 29.1 24.7 94 0.7 NE 15 28 8 15 1010.9 1010.6 3.2
28/12:43pm 26.4 30.4 25.0 92 1.0 NE 13 22 7 12 1010.7 1010.4 2.6
28/12:30pm 25.9 28.9 25.2 96 0.5 NE 19 35 10 19 1010.9 1010.6 2.0
28/12:24pm 25.5 27.8 24.4 94 0.8 NE 20 35 11 19 1011.0 1010.7 1.6
28/12:00pm 29.4 31.4 23.6 71 4.0 E 19 35 10 19 1011.1 1010.8 0.2
28/11:30am 30.4 32.5 23.8 68 4.6 E 19 33 10 18 1011.5 1011.2 0.0
28/11:00am 30.5 30.7 22.1 61 5.7 E 24 44 13 24 1011.8 1011.5 0.0
28/10:30am 30.4 31.8 22.6 63 5.3 E 19 37 10 20 1012.4 1012.1 0.0
28/10:00am 29.5 31.5 22.9 67 4.5 E 17 28 9 15 1012.4 1012.1 0.0
28/09:30am 29.8 32.5 23.4 68 4.4 E 15 30 8 16 1012.3 1012.0 0.0
28/09:00am 30.0 32.6 23.3 67 4.6 E 15 26 8 14 1012.2 1011.9 12.2
28/08:30am 29.3 32.1 23.0 69 4.3 ESE 13 24 7 13 1012.5 1012.2 12.2
28/08:00am 29.3 31.8 23.1 69 4.3 E 15 26 8 14 1012.1 1011.8 12.2
28/07:30am 28.9 32.3 23.4 72 3.8 E 11 19 6 10 1011.8 1011.5 12.2
28/07:00am 28.1 32.3 23.4 75 3.2 ESE 7 13 4 7 1011.8 1011.5 12.2
28/06:30am 27.3 32.0 23.4 79 2.7 SE 4 9 2 5 1011.4 1011.1 12.2
28/06:00am 26.8 31.5 23.4 81 2.3 ESE 4 9 2 5 1010.9 1010.6 12.2
28/05:30am 25.7 31.1 23.8 89 1.3 ESE 2 6 1 3 1010.5 1010.2 12.2
28/05:00am 26.7 31.6 23.6 83 2.1 E 4 7 2 4 1010.5 1010.2 12.2
28/04:30am 26.8 31.2 23.5 82 2.3 ENE 6 9 3 5 1010.5 1010.2 12.2
28/04:00am 26.7 30.7 22.8 79 2.6 ENE 6 9 3 5 1010.5 1010.2 12.2
28/03:30am 26.9 31.7 23.5 81 2.3 E 4 7 2 4 1010.4 1010.1 12.2
28/03:00am 26.9 31.4 23.6 82 2.3 ENE 6 9 3 5 1010.4 1010.1 12.2
28/02:30am 27.0 31.7 23.9 83 2.1 ENE 6 11 3 6 1010.5 1010.2 12.2
28/02:00am 26.6 33.0 25.5 94 0.8 ENE 2 7 1 4 1010.8 1010.5 12.2
28/01:30am 26.0 32.6 25.2 95 0.6 CALM 0 0 0 0 1010.7 1010.4 12.2
28/01:00am 25.9 32.5 25.2 96 0.5 CALM 0 2 0 1 1011.0 1010.7 12.2
28/12:59am 25.8 32.2 24.9 95 0.6 CALM 0 2 0 1 1011.0 1010.7 12.2
28/12:30am 25.8 30.6 24.4 92 1.0 ESE 7 22 4 12 1011.7 1011.4 8.0
28/12:25am 25.9 30.7 24.1 90 1.2 SSE 6 22 3 12 1011.7 1011.4 3.4
28/12:00am 27.2 34.0 25.6 91 1.1 CALM 0 0 0 0 1011.6 1011.3 0.0
 
Date/Time
WST
Temp
°C
App
Temp
°C
Dew
Point
Rel
Hum
%
Delta-T
°C
Wind Press
QNH
hPa
Press
MSL
hPa
Rain
since 9 am
mm
Dir
 
Spd
km/h
Gust
km/h
Spd
kts
Gust
kts
27/11:30pm 28.0 34.5 25.0 84 2.1 CALM 0 7 0 4 1011.9 1011.6 0.0
27/11:00pm 28.4 34.9 25.1 82 2.3 CALM 0 4 0 2 1012.1 1011.8 0.0
27/10:30pm 28.8 34.9 25.0 80 2.7 NE 2 6 1 3 1012.3 1012.0 0.0
27/10:00pm 28.5 34.5 24.9 81 2.5 NNE 2 6 1 3 1012.4 1012.1 0.0
27/09:30pm 28.4 34.4 24.9 81 2.5 NNE 2 4 1 2 1012.3 1012.0 0.0
27/09:00pm 28.2 33.7 24.7 81 2.4 NE 4 7 2 4 1012.1 1011.8 0.0
27/08:30pm 28.3 33.5 24.2 78 2.8 NNE 4 7 2 4 1011.7 1011.4 0.0
27/08:00pm 28.0 33.3 24.4 81 2.5 NNE 4 6 2 3 1011.5 1011.2 0.0
27/07:30pm 28.3 33.8 24.0 77 3.0 NNE 2 6 1 3 1011.1 1010.8 0.0
27/07:00pm 28.7 33.6 23.7 74 3.5 NE 4 6 2 3 1010.9 1010.6 0.0
27/06:30pm 29.2 34.5 23.7 72 3.8 ENE 2 6 1 3 1010.6 1010.3 0.0
27/06:00pm 29.7 34.7 23.9 71 4.0 ENE 4 6 2 3 1010.3 1010.0 0.0
27/05:30pm 30.5 34.9 23.4 66 4.9 ENE 6 7 3 4 1009.9 1009.6 0.0
27/05:00pm 30.9 34.5 23.0 62 5.4 E 9 15 5 8 1009.6 1009.3 0.0
27/04:30pm 31.5 35.3 22.8 60 6.0 E 7 13 4 7 1009.6 1009.3 0.0
27/04:00pm 31.8 35.6 22.7 58 6.2 E 7 15 4 8 1009.6 1009.3 0.0
27/03:30pm 32.2 35.2 21.9 54 7.0 E 9 17 5 9 1009.6 1009.3 0.0
27/03:00pm 32.8 36.3 22.1 53 7.3 ENE 7 17 4 9 1009.6 1009.3 0.0
27/02:30pm 33.4 37.0 22.1 51 7.7 NE 6 15 3 8 1009.7 1009.4 0.0
27/02:00pm 33.1 36.6 22.1 52 7.5 ENE 7 17 4 9 1009.8 1009.5 0.0
27/01:30pm 32.9 36.4 22.2 53 7.3 E 7 17 4 9 1010.2 1009.9 0.0
27/01:00pm 33.0 36.2 21.7 51 7.7 E 7 17 4 9 1010.7 1010.4 0.0
27/12:30pm 32.1 34.4 20.6 50 7.7 ENE 9 17 5 9 1011.2 1010.9 0.0
27/12:00pm 32.0 34.0 21.5 53 7.1 E 13 22 7 12 1011.6 1011.3 0.0
27/11:30am 32.3 34.8 22.5 56 6.7 E 13 26 7 14 1011.9 1011.6 0.0
27/11:00am 32.2 34.1 22.0 55 6.9 E 15 28 8 15 1012.2 1011.9 0.0
27/10:30am 31.9 33.5 20.8 51 7.4 ESE 13 24 7 13 1012.5 1012.2 0.0
27/10:00am 31.8 32.7 20.9 52 7.3 ESE 17 30 9 16 1012.9 1012.6 0.0
27/09:30am 32.0 33.3 20.8 51 7.5 ESE 15 28 8 15 1013.2 1012.9 0.0
27/09:00am 31.9 32.5 20.2 50 7.8 ESE 17 28 9 15 1013.5 1013.2 0.0
27/08:30am 32.1 34.0 21.3 53 7.3 ESE 13 22 7 12 1013.5 1013.2 0.0
27/08:00am 31.6 33.2 20.8 52 7.2 ESE 13 24 7 13 1013.4 1013.1 0.0
27/07:30am 30.8 33.2 21.5 57 6.3 ESE 11 22 6 12 1013.2 1012.9 0.0
27/07:00am 29.6 33.4 22.4 65 4.9 ESE 6 11 3 6 1013.1 1012.8 0.0
27/06:30am 27.9 32.6 23.3 76 3.2 ESE 4 7 2 4 1012.9 1012.6 0.0
27/06:00am 26.7 32.5 25.1 91 1.1 SE 4 7 2 4 1012.6 1012.3 0.0
27/05:30am 26.2 33.0 25.6 96 0.4 CALM 0 4 0 2 1012.2 1011.9 0.0
27/05:00am 26.5 33.4 25.7 95 0.6 CALM 0 4 0 2 1012.1 1011.8 0.0
27/04:30am 27.0 33.7 26.0 94 0.7 SSE 2 4 1 2 1011.8 1011.5 0.0
27/04:00am 27.4 34.5 26.6 95 0.6 SSE 2 4 1 2 1011.9 1011.6 0.0
27/03:30am 27.2 34.9 26.9 98 0.2 CALM 0 2 0 1 1011.7 1011.4 0.0
27/03:00am 27.4 35.1 26.9 97 0.4 CALM 0 2 0 1 1011.8 1011.5 0.0
27/02:30am 27.6 35.4 27.0 97 0.4 CALM 0 0 0 0 1012.0 1011.7 0.0
27/02:00am 27.9 35.9 27.4 97 0.4 CALM 0 0 0 0 1012.2 1011.9 0.0
27/01:30am 27.7 35.7 27.3 98 0.3 CALM 0 0 0 0 1012.3 1012.0 0.0
27/01:00am 27.4 35.2 27.0 98 0.3 CALM 0 0 0 0 1012.4 1012.1 0.0
27/12:30am 27.1 34.6 26.6 97 0.4 CALM 0 0 0 0 1012.3 1012.0 0.0
27/12:00am 27.6 35.2 26.8 95 0.6 CALM 0 0 0 0 1012.5 1012.2 0.0
 
Date/Time
WST
Temp
°C
App
Temp
°C
Dew
Point
Rel
Hum
%
Delta-T
°C
Wind Press
QNH
hPa
Press
MSL
hPa
Rain
since 9 am
mm
Dir
 
Spd
km/h
Gust
km/h
Spd
kts
Gust
kts
26/11:30pm 27.4 35.0 26.7 96 0.5 CALM 0 0 0 0 1012.5 1012.2 0.0
26/11:00pm 27.7 35.1 26.5 93 0.9 CALM 0 0 0 0 1012.6 1012.3 0.0
26/10:30pm 27.6 35.0 26.4 93 0.9 CALM 0 0 0 0 1012.5 1012.2 0.0
26/10:00pm 28.4 36.2 27.0 92 1.0 CALM 0 6 0 3 1012.8 1012.5 0.0
26/09:30pm 27.6 34.5 26.3 93 0.9 SW 2 6 1 3 1012.8 1012.5 0.0
26/09:00pm 27.6 34.8 26.2 92 1.0 CALM 0 2 0 1 1012.7 1012.4 0.0
26/08:30pm 28.8 36.0 26.1 85 1.9 CALM 0 2 0 1 1012.7 1012.4 0.0
26/08:00pm 29.1 35.9 26.1 84 2.1 W 2 6 1 3 1012.4 1012.1 0.0
26/07:30pm 28.9 35.7 26.1 85 2.0 W 2 7 1 4 1012.0 1011.7 0.0
26/07:00pm 29.5 36.3 26.1 82 2.4 WNW 2 6 1 3 1011.5 1011.2 0.0
26/06:30pm 29.6 36.3 25.9 80 2.6 W 2 6 1 3 1010.9 1010.6 0.0
26/06:00pm 30.2 36.6 25.5 76 3.3 W 2 6 1 3 1010.5 1010.2 0.0
26/05:30pm 31.7 37.8 25.0 67 4.7 WNW 2 6 1 3 1010.3 1010.0 0.0
26/05:00pm 32.7 38.3 24.8 63 5.6 NW 4 7 2 4 1010.1 1009.8 0.0
26/04:30pm 34.7 36.7 18.8 39 10.4 SE 6 11 3 6 1010.0 1009.7 0.0
26/04:00pm 35.0 36.6 18.2 37 11.0 SE 7 15 4 8 1010.1 1009.8 0.0
26/03:30pm 35.1 36.7 17.8 36 11.2 SE 6 11 3 6 1010.1 1009.8 0.0
26/03:00pm 34.8 36.7 18.6 38 10.6 ESE 6 11 3 6 1010.2 1009.9 0.0
26/02:30pm 34.8 37.6 20.8 44 9.4 ESE 7 13 4 7 1010.3 1010.0 0.0
26/02:00pm 34.0 36.5 21.1 47 8.7 ENE 9 17 5 9 1010.4 1010.1 0.0
26/01:30pm 34.0 37.2 23.0 52 7.6 E 11 17 6 9 1010.6 1010.3 0.0
26/01:00pm 33.9 37.0 22.2 50 8.0 E 9 17 5 9 1011.0 1010.7 0.0
26/12:30pm 33.4 36.9 22.8 53 7.3 E 9 20 5 11 1011.5 1011.2 0.0
26/12:00pm 33.4 36.2 21.6 50 8.0 E 9 19 5 10 1011.9 1011.6 0.0
26/11:30am 33.5 37.0 22.8 53 7.4 ESE 9 17 5 9 1012.2 1011.9 0.0
26/11:00am 33.5 37.4 23.0 54 7.3 ESE 7 17 4 9 1012.3 1012.0 0.0
26/10:30am 33.2 36.5 22.5 53 7.3 E 9 17 5 9 1012.8 1012.5 0.0
26/10:00am 33.8 37.1 21.5 48 8.3 SSE 6 13 3 7 1013.0 1012.7 0.0
26/09:30am 32.5 36.2 22.2 54 7.0 SSW 6 13 3 7 1013.1 1012.8 0.0
26/09:00am 32.1 35.4 21.9 54 6.9 SW 7 13 4 7 1013.2 1012.9 0.0
26/08:30am 31.1 34.8 22.2 59 6.1 S 6 11 3 6 1013.4 1013.1 0.0
26/08:00am 30.3 34.5 23.1 65 4.9 SSW 6 11 3 6 1013.3 1013.0 0.0
26/07:30am 29.1 34.0 24.3 75 3.3 SSW 6 11 3 6 1012.9 1012.6 0.0
26/07:00am 27.8 33.1 24.3 81 2.4 SSW 4 7 2 4 1012.6 1012.3 0.0
26/06:30am 26.8 33.0 24.6 88 1.5 CALM 0 6 0 3 1012.2 1011.9 0.0
26/06:00am 25.8 30.7 24.4 92 1.0 SW 6 9 3 5 1011.8 1011.5 0.0
26/05:30am 25.6 31.4 24.6 94 0.7 SW 2 7 1 4 1011.6 1011.3 0.0
26/05:00am 25.6 31.6 24.8 95 0.6 SW 2 6 1 3 1011.2 1010.9 0.0
26/04:30am 25.6 31.2 24.8 95 0.6 SW 4 7 2 4 1011.1 1010.8 0.0
26/04:00am 25.8 31.8 24.8 94 0.7 SW 2 6 1 3 1010.7 1010.4 0.0
26/03:30am 25.7 31.7 24.8 95 0.6 WSW 2 7 1 4 1010.6 1010.3 0.0
26/03:00am 25.8 31.9 25.0 95 0.6 WSW 2 7 1 4 1010.7 1010.4 0.0
26/02:30am 26.0 31.9 24.7 92 0.9 SW 2 6 1 3 1010.6 1010.3 0.0
26/02:00am 26.3 32.1 24.6 90 1.2 SW 2 6 1 3 1010.7 1010.4 0.0
26/01:30am 26.8 32.1 24.4 87 1.7 WSW 4 7 2 4 1010.7 1010.4 0.0
26/01:00am 26.9 32.2 24.4 86 1.7 WSW 4 7 2 4 1010.9 1010.6 0.0
26/12:30am 26.8 32.3 24.6 88 1.5 WSW 4 7 2 4 1011.1 1010.8 0.0
26/12:00am 26.5 32.5 24.9 91 1.1 WSW 2 6 1 3 1011.3 1011.0 0.0
 
Date/Time
WST
Temp
°C
App
Temp
°C
Dew
Point
Rel
Hum
%
Delta-T
°C
Wind Press
QNH
hPa
Press
MSL
hPa
Rain
since 9 am
mm
Dir
 
Spd
km/h
Gust
km/h
Spd
kts
Gust
kts
25/11:30pm 26.8 32.8 24.8 89 1.4 WSW 2 6 1 3 1011.6 1011.3 0.0
25/11:00pm 26.8 32.7 24.7 88 1.5 WSW 2 6 1 3 1011.9 1011.6 0.0
25/10:30pm 27.5 33.3 24.5 84 2.1 W 2 6 1 3 1011.9 1011.6 0.0
25/10:00pm 28.1 34.4 24.7 82 2.4 CALM 0 6 0 3 1012.1 1011.8 0.0
25/09:30pm 27.9 34.5 25.3 86 1.8 CALM 0 4 0 2 1012.2 1011.9 0.0
25/09:00pm 27.5 34.1 25.3 88 1.5 CALM 0 4 0 2 1011.8 1011.5 0.0
25/08:30pm 28.2 34.9 25.4 85 2.0 CALM 0 4 0 2 1011.6 1011.3 0.0
25/08:00pm 28.1 35.1 25.9 88 1.6 CALM 0 4 0 2 1011.4 1011.1 0.0
25/07:30pm 28.5 35.3 26.1 87 1.7 NW 2 6 1 3 1011.3 1011.0 0.0
25/07:00pm 28.6 35.5 26.3 87 1.6 NW 2 6 1 3 1011.1 1010.8 0.0
25/06:30pm 29.1 36.4 26.3 85 2.0 CALM 0 2 0 1 1010.9 1010.6 0.0
25/06:00pm 29.5 36.8 26.3 83 2.3 CALM 0 4 0 2 1010.6 1010.3 0.0
25/05:30pm 30.2 36.3 26.2 79 2.9 NW 6 11 3 6 1010.4 1010.1 0.0
25/05:00pm 31.2 37.1 25.9 73 3.8 NW 6 11 3 6 1010.2 1009.9 0.0
25/04:30pm 31.9 37.6 25.6 69 4.5 NW 6 11 3 6 1010.0 1009.7 0.0
25/04:00pm 32.2 38.0 25.8 69 4.6 NNE 6 11 3 6 1009.9 1009.6 0.0
25/03:30pm 32.5 37.1 25.4 66 5.0 NW 11 17 6 9 1010.0 1009.7 0.0
25/03:00pm 32.5 37.5 25.4 66 5.0 NW 9 15 5 8 1009.8 1009.5 0.0
25/02:30pm 32.6 37.3 24.9 64 5.4 NNW 9 15 5 8 1009.8 1009.5 0.0
25/02:00pm 33.0 37.7 24.9 62 5.7 NW 9 17 5 9 1009.6 1009.3 0.0
25/01:30pm 32.7 37.7 23.8 59 6.2 N 4 9 2 5 1009.7 1009.4 0.0

Other Formats:

Comma delimited format used in spreadsheet applications
http://www.bom.gov.au/fwo/IDW60801/IDW60801.99206.axf

JavaScript Object Notation format (JSON) in row-major order
http://www.bom.gov.au/fwo/IDW60801/IDW60801.99206.json